Time;durP1;ratioP1;P1;durP2;ratioP2;P2;SDS_P1;SDS_P2;PMS_P1;PMS_P2;Temp;Humidity;BMP_temperature;BMP_pressure;BME280_temperature;BME280_humidity;BME280_pressure;Samples;Min_cycle;Max_cycle;Signal;HPM_P1;HPM_P2
2022/08/24 00:01:23;;;;;;;11.80;3.20;;;;;;;19.15;62.29;99076.88;105060;1271;74015;-23
2022/08/24 00:03:50;;;;;;;11.00;3.50;;;;;;;19.11;62.15;99078.06;104764;1271;63046;-23
2022/08/24 00:06:21;;;;;;;17.70;3.90;;;;;;;18.90;62.92;99085.11;104815;1271;61682;-24
2022/08/24 00:08:50;;;;;;;13.10;3.40;;;;;;;18.72;63.88;99088.17;105074;1271;76897;-24
2022/08/24 00:11:17;;;;;;;9.80;3.50;;;;;;;18.60;63.89;99093.05;104833;1271;76746;-24
2022/08/24 00:13:44;;;;;;;8.40;3.20;;;;;;;18.47;64.13;99093.67;104858;1272;75348;-22
2022/08/24 00:16:11;;;;;;;13.30;2.90;;;;;;;18.35;64.82;99091.34;105013;1271;62968;-26
2022/08/24 00:18:38;;;;;;;8.40;3.30;;;;;;;18.22;65.65;99096.66;104930;1270;63037;-26
2022/08/24 00:21:06;;;;;;;7.40;3.10;;;;;;;18.11;66.03;99100.30;104895;1271;75516;-25
2022/08/24 00:23:34;;;;;;;8.50;2.40;;;;;;;18.02;66.77;99104.30;104968;1273;76955;-25
2022/08/24 00:26:03;;;;;;;17.40;3.30;;;;;;;18.40;65.30;99102.05;104923;1271;74037;-24
2022/08/24 00:28:30;;;;;;;9.90;3.20;;;;;;;18.96;64.26;99102.88;105039;1271;63191;-23
2022/08/24 00:30:57;;;;;;;9.50;2.90;;;;;;;19.06;63.65;99099.17;104902;1271;61724;-23
2022/08/24 00:33:25;;;;;;;9.30;3.10;;;;;;;18.96;63.18;99096.34;105066;1271;76601;-23
2022/08/24 00:35:52;;;;;;;14.70;2.90;;;;;;;18.78;63.97;99096.10;105085;1271;75118;-23
2022/08/24 00:38:19;;;;;;;11.00;3.30;;;;;;;18.59;64.48;99096.06;104742;1271;75410;-23
2022/08/24 00:40:47;;;;;;;9.60;3.40;;;;;;;18.37;65.29;99097.44;105021;1271;61597;-23
2022/08/24 00:43:18;;;;;;;9.00;3.10;;;;;;;18.20;65.61;99099.05;104938;1272;61690;-23
2022/08/24 00:45:50;;;;;;;15.30;4.00;;;;;;;18.07;65.86;99097.11;104695;1271;76677;-23
2022/08/24 00:48:21;;;;;;;5.30;2.90;;;;;;;17.93;65.94;99102.48;104778;1271;76181;-23
2022/08/24 00:51:03;;;;;;;8.70;3.60;;;;;;;17.86;65.99;99105.04;104743;1271;74372;-23
2022/08/24 00:53:32;;;;;;;13.40;3.20;;;;;;;17.79;66.93;99104.41;104718;1271;63702;-23
2022/08/24 00:56:05;;;;;;;10.40;2.50;;;;;;;18.35;65.25;99096.94;104804;1271;62976;-23
2022/08/24 00:58:39;;;;;;;9.60;3.40;;;;;;;18.84;63.80;99091.66;104792;1271;76484;-23
2022/08/24 01:01:07;;;;;;;13.80;4.40;;;;;;;18.87;63.16;99093.38;104673;1271;74957;-23
2022/08/24 01:03:36;;;;;;;8.30;3.50;;;;;;;18.71;63.68;99097.62;104710;1271;75407;-23
2022/08/24 01:06:03;;;;;;;8.50;3.40;;;;;;;18.65;64.34;99097.95;104822;1271;63157;-23
2022/08/24 01:08:30;;;;;;;13.90;3.50;;;;;;;18.45;64.53;99094.64;105170;1271;61150;-23
2022/08/24 01:11:00;;;;;;;11.20;4.00;;;;;;;18.21;66.01;99096.57;105084;1271;76682;-23
2022/08/24 01:13:27;;;;;;;8.00;3.60;;;;;;;18.01;67.01;99096.20;105180;1271;77059;-23
2022/08/24 01:16:00;;;;;;;11.90;3.60;;;;;;;17.79;67.39;99095.77;105178;1271;75701;-23
2022/08/24 01:21:28;;;;;;;9.00;3.00;;;;;;;17.59;67.68;99094.34;104687;1274;62156;-23
2022/08/24 01:23:57;;;;;;;12.70;3.80;;;;;;;18.12;65.85;99089.94;104811;1272;76290;-23
2022/08/24 01:26:31;;;;;;;8.10;3.60;;;;;;;18.52;64.49;99087.84;104737;1271;75692;-23
2022/08/24 01:29:08;;;;;;;7.00;3.50;;;;;;;18.53;63.77;99081.86;104777;1271;75581;-23
2022/08/24 01:31:36;;;;;;;5.80;3.20;;;;;;;18.45;63.79;99083.24;104629;1271;62637;-23
2022/08/24 01:34:04;;;;;;;10.10;4.00;;;;;;;18.28;64.38;99087.20;104832;1271;61745;-23
2022/08/24 01:36:47;;;;;;;14.30;3.70;;;;;;;18.10;65.06;99087.28;104800;1271;76408;-23
2022/08/24 01:39:19;;;;;;;20.40;4.00;;;;;;;17.90;65.70;99084.20;104680;1271;76198;-23
2022/08/24 01:41:47;;;;;;;5.90;3.70;;;;;;;17.73;66.40;99084.59;104921;1271;75495;-23
2022/08/24 01:44:14;;;;;;;13.20;3.80;;;;;;;17.64;67.07;99091.44;105063;1271;62176;-23
2022/08/24 01:46:43;;;;;;;7.60;3.00;;;;;;;17.54;67.74;99095.58;104890;1271;61964;-23
2022/08/24 01:49:11;;;;;;;10.80;3.20;;;;;;;17.99;66.60;99099.04;105011;1271;76625;-23
2022/08/24 01:51:38;;;;;;;6.20;3.40;;;;;;;18.43;64.50;99097.82;105154;1271;76970;-23
2022/08/24 01:54:05;;;;;;;6.20;3.20;;;;;;;18.44;64.61;99095.84;104796;1271;73051;-23
2022/08/24 01:56:33;;;;;;;14.80;4.00;;;;;;;18.27;65.11;99092.73;104882;1271;62819;-23
2022/08/24 01:59:05;;;;;;;6.90;3.10;;;;;;;18.08;65.76;99093.45;104856;1271;61719;-23
2022/08/24 02:01:37;;;;;;;8.00;4.00;;;;;;;17.95;66.00;99098.06;104825;1271;75377;-23
2022/08/24 02:04:05;;;;;;;8.90;4.40;;;;;;;17.80;65.94;99102.92;104775;1271;76004;-23
2022/08/24 02:06:35;;;;;;;9.60;6.70;;;;;;;17.65;66.42;99100.47;104873;1271;75510;-23
2022/08/24 02:09:05;;;;;;;7.20;3.90;;;;;;;17.52;66.60;99092.71;105000;1271;61916;-23
2022/08/24 02:11:33;;;;;;;11.90;4.10;;;;;;;17.39;67.15;99089.59;105090;1272;63023;-23
2022/08/24 02:14:00;;;;;;;10.20;2.90;;;;;;;17.27;68.02;99086.84;105119;1271;75592;-23
2022/08/24 02:16:27;;;;;;;5.40;2.50;;;;;;;17.73;66.86;99085.27;105129;1271;76967;-23
2022/08/24 02:18:55;;;;;;;7.30;3.00;;;;;;;18.29;65.24;99078.36;104852;1271;73158;-23
2022/08/24 02:21:22;;;;;;;11.90;3.70;;;;;;;18.37;64.23;99079.14;104827;1271;62052;-23
2022/08/24 02:23:49;;;;;;;6.50;3.50;;;;;;;18.22;64.33;99080.36;104658;1271;62373;-23
2022/08/24 02:26:16;;;;;;;10.30;3.20;;;;;;;18.04;64.77;99083.76;104889;1271;76625;-23
2022/08/24 02:28:43;;;;;;;11.40;3.90;;;;;;;17.86;65.37;99087.26;104741;1271;75989;-23
2022/08/24 02:31:11;;;;;;;9.00;3.20;;;;;;;17.68;65.92;99088.75;105077;1271;75352;-23
2022/08/24 02:33:38;;;;;;;8.50;3.80;;;;;;;17.46;66.54;99086.95;105054;1271;61753;-23
2022/08/24 02:36:08;;;;;;;9.90;3.70;;;;;;;17.31;67.36;99087.17;105100;1271;61076;-23
2022/08/24 02:38:54;;;;;;;14.50;4.40;;;;;;;17.11;68.35;99083.86;104902;1271;76661;-23
2022/08/24 02:41:23;;;;;;;8.20;2.90;;;;;;;17.02;69.25;99084.34;105134;1272;76781;-23
2022/08/24 02:43:51;;;;;;;8.70;3.40;;;;;;;17.52;68.11;99091.40;105185;1271;75175;-23
2022/08/24 02:46:24;;;;;;;13.80;3.50;;;;;;;17.99;66.15;99096.81;105073;1271;61860;-23
2022/08/24 02:48:51;;;;;;;6.40;3.10;;;;;;;18.03;65.46;99098.42;104643;1271;61105;-23
2022/08/24 02:51:40;;;;;;;12.00;4.40;;;;;;;17.89;65.82;99101.02;104820;1271;76624;-23
2022/08/24 02:54:12;;;;;;;21.90;7.30;;;;;;;17.54;67.27;99105.58;104769;1271;75779;-23
2022/08/24 02:56:40;;;;;;;12.90;6.30;;;;;;;17.30;68.17;99110.02;104741;1271;75394;-23
2022/08/24 02:59:07;;;;;;;22.20;9.80;;;;;;;17.08;68.91;99111.04;104939;1271;63086;-23
2022/08/24 03:01:34;;;;;;;21.80;14.10;;;;;;;16.95;69.55;99109.57;105011;1271;61712;-23
2022/08/24 03:04:02;;;;;;;29.20;19.50;;;;;;;16.86;69.48;99109.49;104814;1271;75528;-23
2022/08/24 03:06:29;;;;;;;14.70;10.40;;;;;;;16.86;69.88;99116.36;105092;1271;76095;-23
2022/08/24 03:08:56;;;;;;;24.70;17.50;;;;;;;17.38;68.30;99119.72;105137;1271;73217;-23
2022/08/24 03:11:24;;;;;;;30.20;21.00;;;;;;;17.87;66.22;99127.45;105062;1271;61753;-23
2022/08/24 03:13:56;;;;;;;16.10;11.70;;;;;;;18.01;65.75;99129.16;104887;1271;61772;-23
2022/08/24 03:16:24;;;;;;;11.00;8.30;;;;;;;17.97;65.94;99129.13;105180;1269;76553;-23
2022/08/24 03:18:51;;;;;;;10.30;7.80;;;;;;;17.78;66.13;99129.20;104900;1271;77097;-23
2022/08/24 03:21:18;;;;;;;15.40;8.30;;;;;;;17.55;66.71;99124.70;105002;1271;75411;-23
2022/08/24 03:23:45;;;;;;;12.20;7.40;;;;;;;17.38;67.18;99124.60;104915;1271;62010;-23
2022/08/24 03:26:13;;;;;;;13.50;5.60;;;;;;;17.23;67.94;99127.45;105088;1271;62819;-23
2022/08/24 03:28:40;;;;;;;19.50;7.80;;;;;;;17.09;68.01;99122.30;105205;1269;75632;-23
2022/08/24 03:31:11;;;;;;;28.20;10.50;;;;;;;16.97;69.23;99121.67;105099;1271;76054;-23
2022/08/24 03:33:38;;;;;;;91.30;31.00;;;;;;;17.46;67.91;99123.98;104923;1271;74330;-23
2022/08/24 03:36:06;;;;;;;85.20;29.70;;;;;;;17.97;66.13;99126.48;105048;1274;62988;-23
2022/08/24 03:38:40;;;;;;;57.40;20.10;;;;;;;18.13;65.37;99125.23;105064;1271;61131;-23
2022/08/24 03:41:07;;;;;;;52.20;17.80;;;;;;;18.03;65.48;99133.92;104875;1271;75264;-23
2022/08/24 03:43:45;;;;;;;22.40;10.30;;;;;;;17.97;65.64;99131.87;104783;1271;76065;-24
2022/08/24 03:46:25;;;;;;;21.00;8.20;;;;;;;17.92;65.67;99136.83;104690;1271;74363;-26
2022/08/24 03:48:53;;;;;;;11.50;5.20;;;;;;;17.88;65.81;99134.80;104952;1271;62895;-22
2022/08/24 03:51:22;;;;;;;7.30;5.10;;;;;;;17.86;65.73;99139.25;104909;1271;63026;-23
2022/08/24 03:53:50;;;;;;;13.80;4.60;;;;;;;17.83;65.63;99136.23;104853;1271;75298;-22
2022/08/24 03:56:18;;;;;;;9.40;4.40;;;;;;;17.86;66.01;99136.78;104729;1271;77064;-25
2022/08/24 03:58:46;;;;;;;8.10;3.70;;;;;;;17.97;65.64;99141.92;105136;1271;75448;-25
2022/08/24 04:01:13;;;;;;;9.40;4.00;;;;;;;18.55;64.03;99129.83;104942;1271;62023;-25
2022/08/24 04:03:42;;;;;;;8.70;3.80;;;;;;;19.25;62.37;99133.41;105137;1271;61987;-25
2022/08/24 04:06:10;;;;;;;5.80;3.80;;;;;;;19.49;61.30;99133.36;105118;1271;75249;-25
2022/08/24 04:08:38;;;;;;;12.10;3.40;;;;;;;19.49;61.26;99131.98;104908;1271;76980;-25
2022/08/24 04:11:09;;;;;;;13.80;4.70;;;;;;;19.37;61.19;99131.45;105008;1271;75449;-25
2022/08/24 04:13:36;;;;;;;6.40;4.30;;;;;;;19.28;61.80;99132.05;104871;1271;61393;-25
2022/08/24 04:16:04;;;;;;;8.60;4.10;;;;;;;19.23;61.73;99125.44;105058;1272;63083;-24
2022/08/24 04:18:31;;;;;;;7.70;3.90;;;;;;;19.10;62.26;99130.15;105102;1271;76325;-23
2022/08/24 04:20:59;;;;;;;9.30;4.30;;;;;;;19.23;62.07;99125.34;105135;1271;77018;-24
2022/08/24 04:23:26;;;;;;;10.40;3.90;;;;;;;19.26;61.62;99132.20;105127;1269;74515;-23
2022/08/24 04:26:14;;;;;;;6.80;3.90;;;;;;;19.25;61.90;99132.81;105119;1271;61936;-23
2022/08/24 04:28:41;;;;;;;12.60;4.00;;;;;;;19.31;61.70;99132.82;104936;1271;61302;-25
2022/08/24 04:31:08;;;;;;;6.30;3.80;;;;;;;19.37;61.77;99130.89;105066;1271;75581;-25
2022/08/24 04:33:40;;;;;;;6.70;4.20;;;;;;;19.47;61.36;99126.79;105157;1271;75908;-23
2022/08/24 04:36:08;;;;;;;6.10;3.40;;;;;;;19.57;61.29;99129.13;104935;1271;74155;-24
2022/08/24 04:38:38;;;;;;;7.90;4.40;;;;;;;19.65;60.57;99132.17;105116;1271;61166;-24
2022/08/24 04:41:21;;;;;;;10.10;4.10;;;;;;;19.81;60.57;99131.61;105138;1271;62005;-24
2022/08/24 04:43:58;;;;;;;6.30;3.60;;;;;;;19.90;60.15;99133.11;105035;1271;76665;-24
2022/08/24 04:46:25;;;;;;;7.00;3.60;;;;;;;19.98;59.98;99133.92;105156;1271;77269;-24
2022/08/24 04:48:53;;;;;;;10.40;3.90;;;;;;;20.10;59.89;99137.55;105071;1272;75819;-24
2022/08/24 04:51:21;;;;;;;8.60;4.20;;;;;;;20.27;59.97;99137.72;105080;1271;62071;-24
2022/08/24 04:53:49;;;;;;;7.00;4.00;;;;;;;20.34;58.97;99134.41;105145;1271;61878;-24
2022/08/24 04:56:18;;;;;;;13.60;3.80;;;;;;;20.41;59.28;99132.70;104889;1271;76564;-24
2022/08/24 04:58:46;;;;;;;7.00;3.50;;;;;;;20.56;59.22;99127.23;105000;1271;76783;-24
2022/08/24 05:01:15;;;;;;;7.90;3.80;;;;;;;20.73;58.46;99131.96;105182;1271;74252;-24
2022/08/24 05:03:44;;;;;;;8.40;4.00;;;;;;;20.85;58.24;99128.77;104874;1271;63072;-24
2022/08/24 05:06:14;;;;;;;6.30;3.80;;;;;;;20.87;58.20;99128.36;105127;1271;61601;-25
2022/08/24 05:08:42;;;;;;;7.40;4.10;;;;;;;21.03;57.93;99125.89;105152;1271;76759;-24
2022/08/24 05:11:09;;;;;;;11.50;4.10;;;;;;;21.12;57.41;99121.93;104884;1271;75110;-24
2022/08/24 05:13:37;;;;;;;10.50;4.90;;;;;;;21.20;57.40;99120.36;105061;1271;74392;-24
2022/08/24 05:16:12;;;;;;;8.60;4.10;;;;;;;21.22;57.15;99117.23;104855;1272;62906;-25
2022/08/24 05:18:40;;;;;;;11.70;4.20;;;;;;;21.20;57.32;99120.36;104842;1271;61157;-25
2022/08/24 05:21:09;;;;;;;7.30;3.60;;;;;;;21.32;57.50;99119.34;104779;1271;77138;-24
2022/08/24 05:23:36;;;;;;;6.30;3.50;;;;;;;21.53;57.28;99126.23;105008;1271;77057;-24
2022/08/24 05:26:09;;;;;;;9.30;3.50;;;;;;;21.70;56.42;99127.50;104814;1271;74134;-24
2022/08/24 05:28:37;;;;;;;8.00;3.50;;;;;;;21.82;56.21;99131.02;104718;1271;62106;-24
2022/08/24 05:31:06;;;;;;;9.10;3.70;;;;;;;21.93;55.95;99134.26;104984;1272;62666;-24
2022/08/24 05:33:34;;;;;;;7.60;3.60;;;;;;;22.03;55.81;99128.59;104849;1271;76580;-24
2022/08/24 05:36:02;;;;;;;8.00;3.80;;;;;;;22.13;55.75;99129.55;105117;1271;75689;-24
2022/08/24 05:38:31;;;;;;;5.00;3.90;;;;;;;22.25;55.64;99129.92;104971;1271;75324;-24
2022/08/24 05:41:03;;;;;;;7.10;4.10;;;;;;;22.40;55.60;99130.87;105168;1271;62066;-24
2022/08/24 05:43:31;;;;;;;6.50;3.80;;;;;;;22.54;55.79;99129.24;104743;1271;61721;-24
2022/08/24 05:45:58;;;;;;;7.10;3.70;;;;;;;22.44;55.39;99135.34;104908;1271;76539;-24
2022/08/24 05:48:25;;;;;;;16.60;4.90;;;;;;;22.48;55.15;99131.52;104876;1271;77053;-24
2022/08/24 05:51:05;;;;;;;5.90;3.10;;;;;;;22.68;54.87;99128.97;104899;1271;75462;-24
2022/08/24 05:53:34;;;;;;;8.40;3.90;;;;;;;22.84;54.33;99135.04;104681;1271;63042;-24
2022/08/24 05:56:04;;;;;;;10.50;4.40;;;;;;;22.93;53.91;99137.01;104919;1271;62051;-24
2022/08/24 05:58:31;;;;;;;9.40;5.00;;;;;;;23.01;54.18;99139.73;104690;1272;76547;-24
2022/08/24 06:01:15;;;;;;;7.70;4.60;;;;;;;23.13;54.21;99141.98;104849;1271;75002;-24
2022/08/24 06:03:42;;;;;;;12.30;5.30;;;;;;;23.22;53.76;99143.67;104458;1271;74378;-24
2022/08/24 06:06:12;;;;;;;10.20;5.50;;;;;;;23.35;54.12;99149.69;104880;1271;63167;-24
2022/08/24 06:08:42;;;;;;;7.90;4.80;;;;;;;23.50;53.51;99148.23;104683;1271;61784;-24
2022/08/24 06:11:10;;;;;;;12.10;4.00;;;;;;;23.56;53.09;99148.38;104707;1271;75557;-24
2022/08/24 06:13:37;;;;;;;7.00;4.10;;;;;;;23.68;53.22;99149.17;104780;1271;76002;-24
2022/08/24 06:16:07;;;;;;;7.00;3.90;;;;;;;23.77;52.86;99145.26;105084;1271;75352;-25
2022/08/24 06:18:48;;;;;;;9.00;4.80;;;;;;;23.81;52.02;99143.17;105052;1271;62149;-24
2022/08/24 06:21:19;;;;;;;7.30;3.30;;;;;;;23.86;52.46;99142.60;104678;1271;63174;-24
2022/08/24 06:23:46;;;;;;;5.10;3.10;;;;;;;23.95;52.33;99141.79;104716;1271;76569;-24
2022/08/24 06:29:01;;;;;;;5.00;4.20;;;;;;;24.05;50.65;99141.14;104975;1271;74144;-24
2022/08/24 06:31:28;;;;;;;5.40;3.50;;;;;;;24.02;50.45;99145.45;104868;1271;61999;-24
2022/08/24 06:34:10;;;;;;;9.60;3.90;;;;;;;24.05;49.96;99146.48;105135;1271;61760;-24
2022/08/24 06:36:37;;;;;;;15.70;3.70;;;;;;;24.05;50.05;99151.23;104868;1271;74301;-24
2022/08/24 06:39:07;;;;;;;6.30;3.60;;;;;;;24.13;49.77;99152.52;105046;1271;75765;-24
2022/08/24 06:41:37;;;;;;;5.60;3.30;;;;;;;24.28;50.56;99150.55;104912;1271;75489;-24
2022/08/24 06:44:08;;;;;;;7.70;3.30;;;;;;;24.50;50.23;99155.71;104848;1271;63088;-25
2022/08/24 06:46:48;;;;;;;7.70;3.60;;;;;;;24.58;48.45;99154.70;105067;1271;61754;-24
2022/08/24 06:49:17;;;;;;;5.80;3.50;;;;;;;24.69;49.09;99154.39;105067;1271;76630;-24
2022/08/24 06:51:45;;;;;;;5.80;3.90;;;;;;;24.84;49.39;99156.02;104703;1271;77006;-24
2022/08/24 06:54:17;;;;;;;7.20;3.70;;;;;;;25.02;48.79;99157.11;104878;1269;75177;-24
2022/08/24 06:56:46;;;;;;;10.40;3.70;;;;;;;25.13;47.79;99158.34;104688;1271;62183;-24
2022/08/24 06:59:13;;;;;;;10.20;4.00;;;;;;;25.29;48.13;99158.16;105021;1271;62808;-24
2022/08/24 07:01:40;;;;;;;10.40;3.30;;;;;;;25.42;47.04;99158.58;104851;1272;75706;-25
2022/08/24 07:04:08;;;;;;;6.80;3.80;;;;;;;25.45;46.04;99158.48;104815;1271;77090;-24
2022/08/24 07:07:02;;;;;;;6.10;3.40;;;;;;;25.55;47.60;99157.61;104886;1271;74424;-25
2022/08/24 07:09:30;;;;;;;6.80;3.70;;;;;;;25.71;47.31;99159.08;104895;1271;63390;-24
2022/08/24 07:11:58;;;;;;;6.50;3.60;;;;;;;25.83;47.91;99162.30;104902;1271;62194;-24
2022/08/24 07:14:25;;;;;;;9.60;4.00;;;;;;;25.77;48.35;99159.52;105090;1271;76433;-24
2022/08/24 07:16:52;;;;;;;8.60;4.30;;;;;;;25.89;47.99;99159.94;105095;1271;76965;-24
2022/08/24 07:19:19;;;;;;;6.60;4.00;;;;;;;25.95;47.97;99157.74;104938;1271;74392;-24
2022/08/24 07:21:46;;;;;;;8.30;3.70;;;;;;;26.03;48.63;99160.77;105047;1271;61640;-24
2022/08/24 07:24:14;;;;;;;11.60;3.60;;;;;;;26.11;47.55;99160.27;105111;1271;61083;-24
2022/08/24 07:26:42;;;;;;;5.10;3.50;;;;;;;26.02;47.31;99161.85;105025;1271;75442;-24
2022/08/24 07:29:13;;;;;;;6.70;3.80;;;;;;;26.06;47.46;99162.91;105104;1272;74900;-25
2022/08/24 07:32:01;;;;;;;7.00;3.80;;;;;;;26.36;46.32;99167.25;103836;1271;1514815;-23
2022/08/24 07:34:36;;;;;;;5.90;3.30;;;;;;;26.54;44.65;99166.27;105112;1271;61983;-23
2022/08/24 07:37:06;;;;;;;7.20;3.50;;;;;;;26.69;43.89;99166.52;105101;1271;61985;-23
2022/08/24 07:39:36;;;;;;;8.40;3.50;;;;;;;26.79;43.90;99169.54;104988;1271;76860;-23
2022/08/24 07:42:03;;;;;;;6.50;3.50;;;;;;;26.96;43.03;99172.21;105129;1271;76137;-23
2022/08/24 07:44:44;;;;;;;10.20;4.70;;;;;;;27.11;43.78;99168.89;105075;1271;74542;-23
2022/08/24 07:47:12;;;;;;;7.80;4.30;;;;;;;27.34;44.60;99167.80;105047;1269;62104;-23
2022/08/24 07:50:00;;;;;;;5.20;3.30;;;;;;;27.69;44.83;99164.36;104938;1269;62008;-23
2022/08/24 07:52:28;;;;;;;11.90;3.80;;;;;;;28.01;44.35;99164.68;104888;1271;75276;-23
2022/08/24 07:54:55;;;;;;;4.40;3.30;;;;;;;28.21;42.81;99169.10;105016;1272;76191;-24
2022/08/24 07:57:22;;;;;;;24.90;9.90;;;;;;;27.72;43.62;99171.52;104915;1272;75177;-23
2022/08/24 07:59:50;;;;;;;6.50;4.30;;;;;;;27.75;43.75;99170.95;104996;1271;61784;-23
2022/08/24 08:02:18;;;;;;;7.50;3.90;;;;;;;28.11;43.24;99170.88;105042;1271;61963;-23
2022/08/24 08:04:47;;;;;;;6.10;3.30;;;;;;;28.39;42.75;99170.88;104823;1271;76410;-23
2022/08/24 08:07:16;;;;;;;5.90;3.40;;;;;;;28.49;42.79;99171.71;104779;1269;75582;-23
2022/08/24 08:09:48;;;;;;;24.30;13.90;;;;;;;28.53;41.74;99171.51;104768;1272;75373;-24
2022/08/24 08:12:15;;;;;;;10.50;5.20;;;;;;;28.20;43.48;99169.70;104949;1271;63559;-24
2022/08/24 08:14:52;;;;;;;10.80;5.40;;;;;;;28.53;41.74;99172.53;104919;1271;62016;-23
2022/08/24 08:17:19;;;;;;;14.30;4.70;;;;;;;28.64;42.34;99172.34;104775;1271;76861;-23
2022/08/24 08:19:46;;;;;;;7.60;3.60;;;;;;;28.83;41.38;99173.86;104817;1272;75927;-23
2022/08/24 08:25:20;;;;;;;7.80;3.70;;;;;;;29.14;40.81;99170.88;104800;1271;61802;-23
2022/08/24 08:27:48;;;;;;;7.60;3.70;;;;;;;29.28;40.82;99173.88;105106;1271;61799;-23
2022/08/24 08:30:15;;;;;;;6.40;3.40;;;;;;;29.60;40.38;99174.88;105004;1271;75542;-23
2022/08/24 08:32:45;;;;;;;11.60;4.30;;;;;;;29.93;39.96;99177.39;105091;1271;76082;-23
2022/08/24 08:35:12;;;;;;;21.30;8.90;;;;;;;29.60;39.22;99178.17;105118;1271;75362;-23
2022/08/24 08:37:42;;;;;;;47.10;26.40;;;;;;;28.99;39.63;99177.61;105071;1272;61743;-23
2022/08/24 08:40:15;;;;;;;12.50;6.20;;;;;;;29.09;40.94;99176.20;105109;1272;62096;-23
2022/08/24 08:42:58;;;;;;;9.50;4.20;;;;;;;29.70;38.82;99175.00;104839;1271;75604;-23
2022/08/24 08:46:02;;;;;;;19.70;9.80;;;;;;;29.88;38.98;99178.23;104740;1271;76757;-23
2022/08/24 08:48:47;;;;;;;10.40;4.00;;;;;;;30.07;39.17;99179.19;104752;1271;75140;-23
2022/08/24 08:51:39;;;;;;;9.90;3.90;;;;;;;30.44;38.40;99180.10;105096;1272;62102;-23
2022/08/24 08:54:09;;;;;;;14.00;6.40;;;;;;;30.50;38.45;99179.74;104981;1271;63088;-23
2022/08/24 08:56:50;;;;;;;15.20;4.70;;;;;;;30.30;38.15;99182.17;105024;1271;75450;-23
2022/08/24 08:59:47;;;;;;;11.10;3.60;;;;;;;30.56;38.43;99183.99;104832;1271;76900;-23
2022/08/24 09:02:27;;;;;;;6.70;3.90;;;;;;;30.58;37.45;99183.54;104999;1271;75536;-23
2022/08/24 09:05:26;;;;;;;6.90;3.80;;;;;;;30.81;38.55;99185.35;105085;1270;61694;-23
2022/08/24 09:08:20;;;;;;;8.30;4.60;;;;;;;30.62;37.78;99182.83;105126;1270;61852;-23
2022/08/24 09:10:58;;;;;;;41.10;31.20;;;;;;;30.50;38.24;99178.52;104822;1271;76445;-23
2022/08/24 09:13:47;;;;;;;16.40;9.10;;;;;;;30.31;36.89;99176.59;104910;1271;75980;-23
2022/08/24 09:16:37;;;;;;;11.20;4.10;;;;;;;31.09;35.55;99183.81;104777;1272;74317;-23
2022/08/24 09:19:47;;;;;;;5.20;3.60;;;;;;;31.57;34.74;99177.84;104922;1271;62186;-23
2022/08/24 09:22:19;;;;;;;9.50;3.50;;;;;;;32.04;33.29;99174.62;104772;1271;61959;-23
2022/08/24 09:24:52;;;;;;;7.10;3.50;;;;;;;32.32;34.00;99175.46;104822;1271;76578;-23
2022/08/24 09:27:43;;;;;;;;;;;;;;;32.59;34.14;99170.99;104888;1272;75965;-23
2022/08/24 09:30:17;;;;;;;9.80;3.40;;;;;;;32.93;34.00;99171.77;105030;1271;75505;-23
2022/08/24 09:33:22;;;;;;;12.00;3.20;;;;;;;32.97;32.56;99177.10;105008;1271;61859;-23
2022/08/24 09:35:58;;;;;;;5.10;3.20;;;;;;;33.25;31.88;99178.84;105094;1271;63178;-23
2022/08/24 09:38:35;;;;;;;5.60;3.40;;;;;;;32.88;32.35;99179.44;104872;1274;76927;-23
2022/08/24 09:41:08;;;;;;;23.10;12.60;;;;;;;32.38;32.33;99180.46;104672;1271;76754;-23
2022/08/24 09:44:02;;;;;;;9.50;3.70;;;;;;;32.55;32.53;99179.77;104757;1272;75472;-23
2022/08/24 09:46:44;;;;;;;5.80;3.50;;;;;;;32.72;32.70;99178.59;104761;1271;62031;-23
2022/08/24 09:49:25;;;;;;;9.00;4.20;;;;;;;32.93;32.73;99176.14;104893;1271;61867;-23
2022/08/24 09:51:57;;;;;;;18.60;8.70;;;;;;;33.11;32.34;99176.55;105122;1272;76811;-23
2022/08/24 09:54:50;;;;;;;14.50;7.30;;;;;;;32.80;32.90;99176.16;105143;1271;76936;-23
2022/08/24 09:57:17;;;;;;;7.80;3.80;;;;;;;33.37;32.34;99179.86;105031;1271;75123;-23
2022/08/24 10:00:13;;;;;;;12.40;3.30;;;;;;;33.36;32.14;99182.13;104859;1274;61853;-23
2022/08/24 10:03:07;;;;;;;7.30;3.50;;;;;;;33.42;30.41;99181.61;104789;1271;62431;-23
2022/08/24 10:05:57;;;;;;;6.90;3.10;;;;;;;33.69;31.52;99181.78;105094;1271;75545;-23
2022/08/24 10:08:33;;;;;;;11.40;3.30;;;;;;;33.92;31.13;99183.27;104943;1271;76956;-23
2022/08/24 10:11:05;;;;;;;6.30;3.30;;;;;;;34.08;31.38;99181.79;105076;1271;75232;-23
2022/08/24 10:14:11;;;;;;;6.30;2.90;;;;;;;33.94;30.35;99180.33;105157;1271;62222;-23
2022/08/24 10:16:50;;;;;;;8.30;3.10;;;;;;;33.87;30.95;99183.40;104977;1271;63407;-24
2022/08/24 10:19:24;;;;;;;6.50;2.80;;;;;;;34.27;30.26;99177.69;105007;1271;75392;-24
2022/08/24 10:22:07;;;;;;;6.00;2.70;;;;;;;34.48;29.30;99185.67;105084;1271;77036;-24
2022/08/24 10:24:37;;;;;;;4.80;2.50;;;;;;;34.60;28.42;99183.02;105073;1270;75305;-24
2022/08/24 10:27:12;;;;;;;5.90;3.30;;;;;;;34.62;28.34;99183.09;105073;1271;63183;-24
2022/08/24 10:30:04;;;;;;;8.80;3.20;;;;;;;34.80;28.33;99178.74;104989;1271;62803;-24
2022/08/24 10:32:51;;;;;;;10.50;2.60;;;;;;;35.08;28.21;99178.52;105080;1271;76507;-24
2022/08/24 10:35:25;;;;;;;6.90;2.50;;;;;;;35.10;27.35;99175.69;104920;1271;74922;-25
2022/08/24 10:41:07;;;;;;;7.70;2.60;;;;;;;35.44;27.36;99177.63;104765;1271;63072;-24
2022/08/24 10:43:45;;;;;;;8.30;2.80;;;;;;;35.62;27.89;99178.36;104818;1272;63251;-24
2022/08/24 10:46:44;;;;;;;10.50;3.10;;;;;;;35.83;26.87;99179.98;105127;1271;75502;-24
2022/08/24 10:49:34;;;;;;;6.50;2.70;;;;;;;36.11;27.10;99179.81;105199;1271;75604;-24
2022/08/24 10:52:26;;;;;;;13.90;2.40;;;;;;;36.24;25.84;99180.06;104863;1272;75325;-25
2022/08/24 10:54:53;;;;;;;12.30;3.10;;;;;;;36.49;26.20;99177.60;105000;1271;63137;-25
2022/08/24 10:57:27;;;;;;;11.30;2.90;;;;;;;36.45;25.06;99175.47;104876;1271;61074;-24
2022/08/24 11:00:11;;;;;;;12.00;3.20;;;;;;;36.14;24.13;99175.44;104777;1270;76259;-25
2022/08/24 11:02:48;;;;;;;15.90;4.00;;;;;;;36.21;24.79;99177.66;105131;1271;76933;-25
2022/08/24 11:05:27;;;;;;;12.20;3.10;;;;;;;36.33;24.88;99172.52;105121;1271;75305;-24
2022/08/24 11:08:04;;;;;;;10.30;3.10;;;;;;;36.61;26.38;99173.41;104906;1271;63278;-24
2022/08/24 11:10:34;;;;;;;6.60;2.80;;;;;;;36.75;24.76;99170.73;104911;1271;61662;-24
2022/08/24 11:13:16;;;;;;;7.80;3.30;;;;;;;36.97;25.46;99170.33;104997;1272;76353;-25
2022/08/24 11:15:55;;;;;;;11.00;2.90;;;;;;;36.94;24.34;99171.63;105000;1271;75163;-24
2022/08/24 11:18:22;;;;;;;13.20;3.10;;;;;;;36.59;24.10;99167.27;104971;1271;74431;-24
2022/08/24 11:20:52;;;;;;;15.50;3.70;;;;;;;36.83;25.20;99163.89;104851;1271;61787;-24
2022/08/24 11:23:36;;;;;;;20.00;2.70;;;;;;;36.85;24.32;99164.71;104712;1272;62866;-25
2022/08/24 11:26:14;;;;;;;8.20;2.90;;;;;;;36.80;24.12;99162.70;105083;1271;76404;-23
2022/08/24 11:28:57;;;;;;;15.90;3.10;;;;;;;36.50;24.41;99161.97;105131;1271;75838;-24
2022/08/24 11:31:31;;;;;;;;;;;;;;;36.33;23.98;99161.61;104951;1271;75148;-24
2022/08/24 11:34:07;;;;;;;9.20;2.60;;;;;;;36.23;24.21;99163.61;104747;1271;62349;-24
2022/08/24 11:36:35;;;;;;;;;;;;;;;36.20;23.89;99159.91;104756;1272;62919;-24
2022/08/24 11:39:11;;;;;;;14.90;3.00;;;;;;;35.91;24.02;99161.26;105119;1271;76553;-24
2022/08/24 11:42:02;;;;;;;14.40;3.30;;;;;;;35.72;24.03;99167.58;105086;1271;77043;-24
2022/08/24 11:44:38;;;;;;;14.60;3.00;;;;;;;35.66;23.14;99172.52;104620;1271;75381;-24
2022/08/24 11:47:26;;;;;;;7.40;2.20;;;;;;;35.47;23.97;99167.31;104878;1271;62129;-24
2022/08/24 11:50:24;;;;;;;13.80;3.00;;;;;;;35.46;25.29;99172.57;105108;1271;61722;-24
2022/08/24 11:52:54;;;;;;;7.70;2.40;;;;;;;35.67;25.46;99173.05;105163;1271;76939;-24
2022/08/24 11:55:51;;;;;;;12.40;2.60;;;;;;;35.66;24.37;99175.17;104919;1271;76424;-24
2022/08/24 11:58:50;;;;;;;14.90;3.20;;;;;;;35.51;25.67;99172.48;104951;1271;73978;-24
2022/08/24 12:01:25;;;;;;;16.90;2.80;;;;;;;35.46;26.04;99173.92;105083;1271;62064;-24